weather.gov     
National Weather Service

Terminal Aerodrome Forecast
NWS Homepage
This page is being discontinued on March 12, 2014.
The same data is available at this site. Please update your bookmarks.
Thank you, and we apologize for the inconvenience.
Please send an email to SR-SRH.Webmaster@noaa.gov with any concerns.


Current Version
Previous Version:    01  02  03  04  05  06  07  08  09  10  11  12  13  14  15  16  17  18  19  20  21  22  23  24  25  26  27  28  29  30  
   31  32  33  34  35  36  37  38  39  40  41  42  43  44  45  46  47  48  49  50  51  52  
[Printable]
325
FTUS41 KOKX 221100
TAFJFK
TAF
KJFK 221130Z 2212/2318 01013G18KT 6SM SHRA BR BKN015 BKN035
     FM221400 36018G25KT 6SM BR VCSH BKN025 BKN040
     FM230000 35020G29KT 4SM -RA BR BKN015
     FM230600 34015G23KT 4SM -RA BR BKN010
     FM231200 33014G22KT 6SM BR VCSH BKN015=


U.S. Dept. of Commerce
NOAA National Weather Service
1325 East West Highway
Silver Spring, MD 20910
E-mail: w-nws.webmaster@noaa.gov
Page last modified: May 16, 2007
NATIONAL WEATHER SERVICE: for Safety, for Work, for Fun - FOR LIFE